createdAt,value
2023-02-09T00:02:17.503Z,7.45
2023-02-09T00:04:44.141Z,6.68
2023-02-09T00:07:10.645Z,7.13
2023-02-09T00:09:37.279Z,7.70
2023-02-09T00:12:22.634Z,7.63
2023-02-09T00:14:49.150Z,7.00
2023-02-09T00:17:15.657Z,7.10
2023-02-09T00:19:42.490Z,7.15
2023-02-09T00:22:09.106Z,6.93
2023-02-09T00:24:36.503Z,7.78
2023-02-09T00:27:03.295Z,7.30
2023-02-09T00:29:31.326Z,8.15
2023-02-09T00:31:57.928Z,7.82
2023-02-09T00:34:46.020Z,7.55
2023-02-09T00:37:45.399Z,6.55
2023-02-09T00:40:13.150Z,7.82
2023-02-09T00:42:39.681Z,7.35
2023-02-09T00:45:06.740Z,7.80
2023-02-09T00:47:33.310Z,6.82
2023-02-09T00:49:59.895Z,7.70
2023-02-09T00:52:28.615Z,6.45
2023-02-09T00:54:55.130Z,7.85
2023-02-09T00:57:21.737Z,7.95
2023-02-09T00:59:48.236Z,7.78
2023-02-09T01:02:14.751Z,7.82
2023-02-09T01:04:41.334Z,6.68
2023-02-09T01:07:08.063Z,7.82
2023-02-09T01:09:35.470Z,8.32
2023-02-09T01:12:01.992Z,6.88
2023-02-09T01:14:28.767Z,8.10
2023-02-09T01:16:57.224Z,7.45
2023-02-09T01:19:26.771Z,8.02
2023-02-09T01:21:54.580Z,7.55
2023-02-09T01:24:21.128Z,7.53
2023-02-09T01:26:48.218Z,7.60
2023-02-09T01:29:17.307Z,8.48
2023-02-09T01:31:44.643Z,7.53
2023-02-09T01:34:13.406Z,8.20
2023-02-09T01:36:39.946Z,8.48
2023-02-09T01:39:06.448Z,7.97
2023-02-09T01:41:34.814Z,7.65
2023-02-09T01:44:04.553Z,7.97
2023-02-09T01:46:35.487Z,7.78
2023-02-09T01:51:33.444Z,8.55
2023-02-09T01:54:00.787Z,7.93
2023-02-09T01:56:29.872Z,8.57
2023-02-09T01:58:56.758Z,8.85
2023-02-09T02:01:23.971Z,8.27
2023-02-09T02:03:50.596Z,8.93
2023-02-09T02:06:18.303Z,8.35
2023-02-09T02:08:50.935Z,9.30
2023-02-09T02:11:17.894Z,9.13
2023-02-09T02:13:44.432Z,8.07
2023-02-09T02:16:32.204Z,8.73
2023-02-09T02:19:10.421Z,8.05
2023-02-09T02:22:15.466Z,8.32
2023-02-09T02:25:22.213Z,8.07
2023-02-09T02:27:58.379Z,8.00
2023-02-09T02:30:44.136Z,8.05
2023-02-09T02:33:37.126Z,8.32
2023-02-09T02:36:12.851Z,8.90
2023-02-09T02:39:01.143Z,9.32
2023-02-09T02:42:13.425Z,8.93
2023-02-09T02:44:42.556Z,8.90
2023-02-09T02:47:13.130Z,9.25
2023-02-09T02:49:49.325Z,9.48
2023-02-09T02:52:15.900Z,9.82
2023-02-09T02:54:50.062Z,8.60
2023-02-09T02:57:22.677Z,9.43
2023-02-09T02:59:57.134Z,10.13
2023-02-09T03:02:28.604Z,9.38
2023-02-09T03:04:56.857Z,9.38
2023-02-09T03:07:24.396Z,9.35
2023-02-09T03:09:52.235Z,10.02
2023-02-09T03:12:41.264Z,10.10
2023-02-09T03:15:33.771Z,9.27
2023-02-09T03:18:23.084Z,9.50
2023-02-09T03:21:11.523Z,9.75
2023-02-09T03:23:39.941Z,10.70
2023-02-09T03:26:10.056Z,9.82
2023-02-09T03:28:38.537Z,10.20
2023-02-09T03:31:05.311Z,10.10
2023-02-09T03:33:33.280Z,10.35
2023-02-09T03:36:01.745Z,10.82
2023-02-09T03:38:28.656Z,10.80
2023-02-09T03:40:55.356Z,11.02
2023-02-09T03:43:41.876Z,9.85
2023-02-09T03:46:09.749Z,9.80
2023-02-09T03:48:36.457Z,10.25
2023-02-09T03:51:03.126Z,9.73
2023-02-09T03:53:29.679Z,8.85
2023-02-09T03:55:56.177Z,9.75
2023-02-09T03:58:22.847Z,10.18
2023-02-09T04:00:49.329Z,8.32
2023-02-09T04:03:15.839Z,10.13
2023-02-09T04:05:42.320Z,9.60
2023-02-09T04:08:08.838Z,10.82
2023-02-09T04:10:35.314Z,9.68
2023-02-09T04:13:01.829Z,10.20
2023-02-09T04:15:28.433Z,10.60
2023-02-09T04:17:54.973Z,10.65
2023-02-09T04:20:21.490Z,9.02
2023-02-09T04:22:47.991Z,11.05
2023-02-09T04:25:14.528Z,9.52
2023-02-09T04:27:41.021Z,9.95
2023-02-09T04:30:08.336Z,10.18
2023-02-09T04:32:34.852Z,9.75
2023-02-09T04:35:01.571Z,9.73
2023-02-09T04:37:28.059Z,11.52
2023-02-09T04:39:54.887Z,8.60
2023-02-09T04:42:21.371Z,10.88
2023-02-09T04:44:47.849Z,10.35
2023-02-09T04:47:14.344Z,10.70
2023-02-09T04:49:42.515Z,10.10
2023-02-09T04:52:09.033Z,11.50
2023-02-09T04:54:35.523Z,10.38
2023-02-09T04:57:20.418Z,12.80
2023-02-09T04:59:46.988Z,11.82
2023-02-09T05:02:13.578Z,11.80
2023-02-09T05:04:40.063Z,11.50
2023-02-09T05:07:06.630Z,12.32
2023-02-09T05:09:33.397Z,12.43
2023-02-09T05:12:00.013Z,12.60
2023-02-09T05:14:27.237Z,12.80
2023-02-09T05:16:53.803Z,10.73
2023-02-09T05:19:20.356Z,11.80
2023-02-09T05:21:46.950Z,11.60
2023-02-09T05:24:13.503Z,12.32
2023-02-09T05:26:40.058Z,11.68
2023-02-09T05:29:06.623Z,11.77
2023-02-09T05:31:33.235Z,11.93
2023-02-09T05:34:00.994Z,11.80
2023-02-09T05:36:27.808Z,10.52
2023-02-09T05:38:54.341Z,11.40
2023-02-09T05:41:39.352Z,11.65
2023-02-09T05:44:05.897Z,12.57
2023-02-09T05:46:32.555Z,11.95
2023-02-09T05:48:59.036Z,12.63
2023-02-09T05:51:25.626Z,13.13
2023-02-09T05:53:56.192Z,13.48
2023-02-09T05:56:22.740Z,12.90
2023-02-09T05:58:49.259Z,13.52
2023-02-09T06:01:15.770Z,12.52
2023-02-09T06:03:42.456Z,12.90
2023-02-09T06:06:09.083Z,13.70
2023-02-09T06:08:35.616Z,11.52
2023-02-09T06:11:04.007Z,12.30
2023-02-09T06:13:30.798Z,12.05
2023-02-09T06:15:57.394Z,12.93
2023-02-09T06:18:23.922Z,13.77
2023-02-09T06:20:50.412Z,13.20
2023-02-09T06:23:16.913Z,13.57
2023-02-09T06:25:43.445Z,13.77
2023-02-09T06:28:10.011Z,13.75
2023-02-09T06:30:36.777Z,14.05
2023-02-09T06:33:03.281Z,13.85
2023-02-09T06:35:29.778Z,13.25
2023-02-09T06:37:58.601Z,14.30
2023-02-09T06:40:25.168Z,14.45
2023-02-09T06:42:51.658Z,15.00
2023-02-09T06:45:18.346Z,14.88
2023-02-09T06:47:45.923Z,14.65
2023-02-09T06:50:14.513Z,14.27
2023-02-09T06:52:41.056Z,14.23
2023-02-09T06:55:07.858Z,15.43
2023-02-09T06:57:37.170Z,13.13
2023-02-09T07:00:05.817Z,13.85
2023-02-09T07:02:32.379Z,14.77
2023-02-09T07:04:58.965Z,14.32
2023-02-09T07:07:25.621Z,14.73
2023-02-09T07:09:52.255Z,13.70
2023-02-09T07:12:18.730Z,13.88
2023-02-09T07:14:45.993Z,13.73
2023-02-09T07:17:12.607Z,13.65
2023-02-09T07:19:39.111Z,13.18
2023-02-09T07:22:05.738Z,12.98
2023-02-09T07:24:32.302Z,14.18
2023-02-09T07:26:59.473Z,12.90
2023-02-09T07:29:25.990Z,13.80
2023-02-09T07:31:52.631Z,13.82
2023-02-09T07:34:19.200Z,13.45
2023-02-09T07:36:47.734Z,13.23
2023-02-09T07:39:14.679Z,14.27
2023-02-09T07:41:41.687Z,14.48
2023-02-09T07:44:09.369Z,15.07
2023-02-09T07:46:36.299Z,14.75
2023-02-09T07:49:02.890Z,13.93
2023-02-09T07:51:29.613Z,13.38
2023-02-09T07:53:57.615Z,15.43
2023-02-09T07:56:24.497Z,13.95
2023-02-09T07:58:51.404Z,14.45
2023-02-09T08:01:18.631Z,13.65
2023-02-09T08:03:47.230Z,13.88
2023-02-09T08:06:20.224Z,13.40
2023-02-09T08:08:48.593Z,13.15
2023-02-09T08:11:17.775Z,14.32
2023-02-09T08:13:44.874Z,14.18
2023-02-09T08:16:14.215Z,14.85
2023-02-09T08:18:44.369Z,14.23
2023-02-09T08:21:12.986Z,15.60
2023-02-09T08:23:40.694Z,12.50
2023-02-09T08:26:10.089Z,14.45
2023-02-09T08:28:44.045Z,15.70
2023-02-09T08:31:13.215Z,14.82
2023-02-09T08:33:40.546Z,14.73
2023-02-09T08:36:07.600Z,15.73
2023-02-09T08:38:35.059Z,16.38
2023-02-09T08:41:06.381Z,14.38
2023-02-09T08:43:33.121Z,15.88
2023-02-09T08:46:07.938Z,15.80
2023-02-09T08:48:36.156Z,17.35
2023-02-09T08:51:03.252Z,16.45
2023-02-09T08:53:29.774Z,16.40
2023-02-09T08:55:56.351Z,16.88
2023-02-09T08:58:25.357Z,16.70
2023-02-09T09:00:59.103Z,16.35
2023-02-09T09:03:29.672Z,16.20
2023-02-09T09:06:01.003Z,17.30
2023-02-09T09:08:28.388Z,16.42
2023-02-09T09:10:55.130Z,16.88
2023-02-09T09:13:22.107Z,17.15
2023-02-09T09:15:49.111Z,16.52
2023-02-09T09:18:16.005Z,15.30
2023-02-09T09:20:42.767Z,16.40
2023-02-09T09:23:09.322Z,16.08
2023-02-09T09:25:38.378Z,15.60
2023-02-09T09:28:04.943Z,17.65
2023-02-09T09:30:31.800Z,15.98
2023-02-09T09:33:18.218Z,17.08
2023-02-09T09:36:00.700Z,15.52
2023-02-09T09:38:27.251Z,15.02
2023-02-09T09:40:54.215Z,13.95
2023-02-09T09:43:23.517Z,15.27
2023-02-09T09:45:50.399Z,14.98
2023-02-09T09:48:24.376Z,15.38
2023-02-09T09:50:52.930Z,16.05
2023-02-09T09:53:32.991Z,15.30
2023-02-09T09:56:03.865Z,15.43
2023-02-09T09:58:31.201Z,13.82
2023-02-09T10:00:58.360Z,13.90
2023-02-09T10:03:25.121Z,15.15
2023-02-09T10:05:54.285Z,14.30
2023-02-09T10:08:33.505Z,14.45
2023-02-09T10:11:11.255Z,12.35
2023-02-09T10:13:44.886Z,13.73
2023-02-09T10:16:21.656Z,14.75
2023-02-09T10:18:56.783Z,13.55
2023-02-09T10:21:25.926Z,12.82
2023-02-09T10:24:01.408Z,14.93
2023-02-09T10:26:31.652Z,14.23
2023-02-09T10:29:00.763Z,14.87
2023-02-09T10:31:43.048Z,14.13
2023-02-09T10:34:18.288Z,13.32
2023-02-09T10:37:15.761Z,13.70
2023-02-09T10:39:42.442Z,13.43
2023-02-09T10:42:17.917Z,14.32
2023-02-09T10:44:49.217Z,14.80
2023-02-09T10:47:18.673Z,13.70
2023-02-09T10:49:59.765Z,13.50
2023-02-09T10:52:26.821Z,14.43
2023-02-09T10:54:59.970Z,13.00
2023-02-09T10:57:30.984Z,13.50
2023-02-09T11:00:19.136Z,13.55
2023-02-09T11:03:01.385Z,12.63
2023-02-09T11:05:33.858Z,13.45
2023-02-09T11:08:18.472Z,11.55
2023-02-09T11:11:08.470Z,11.88
2023-02-09T11:13:35.458Z,12.93
2023-02-09T11:16:16.175Z,11.60
2023-02-09T11:18:44.601Z,11.93
2023-02-09T11:21:36.240Z,12.68
2023-02-09T11:24:05.413Z,12.55
2023-02-09T11:27:12.990Z,12.93
2023-02-09T11:29:50.128Z,12.73
2023-02-09T11:32:31.572Z,13.48
2023-02-09T11:37:30.078Z,13.05
2023-02-09T11:40:15.564Z,12.80
2023-02-09T11:42:46.436Z,13.48
2023-02-09T11:45:33.608Z,13.80
2023-02-09T11:48:11.023Z,13.73
2023-02-09T11:50:56.227Z,13.07
2023-02-09T11:53:31.502Z,12.98
2023-02-09T11:56:00.234Z,13.60
2023-02-09T11:58:51.375Z,12.82
2023-02-09T12:01:27.156Z,12.35
2023-02-09T12:03:55.563Z,12.32
2023-02-09T12:06:23.108Z,12.35
2023-02-09T12:08:58.314Z,14.15
2023-02-09T12:11:45.289Z,12.93
2023-02-09T12:14:49.051Z,12.25
2023-02-09T12:17:21.515Z,13.73
2023-02-09T12:19:56.635Z,12.93
2023-02-09T12:22:45.518Z,13.10
2023-02-09T12:25:11.943Z,11.40
2023-02-09T12:27:43.056Z,13.43
2023-02-09T12:30:41.856Z,12.43
2023-02-09T12:33:23.547Z,12.18
2023-02-09T12:36:04.999Z,11.90
2023-02-09T12:39:04.666Z,12.60
2023-02-09T12:41:51.539Z,10.27
2023-02-09T12:44:19.260Z,11.32
2023-02-09T12:46:46.541Z,9.80
2023-02-09T12:49:15.958Z,10.35
2023-02-09T12:51:53.203Z,10.63
2023-02-09T12:54:50.442Z,10.00
2023-02-09T12:57:17.211Z,10.85
2023-02-09T12:59:49.537Z,10.68
2023-02-09T13:02:50.959Z,10.98
2023-02-09T13:05:17.389Z,10.82
2023-02-09T13:08:18.641Z,10.93
2023-02-09T13:10:50.857Z,10.75
2023-02-09T13:13:21.741Z,11.40
2023-02-09T13:16:05.119Z,11.13
2023-02-09T13:18:56.351Z,11.88
2023-02-09T13:21:59.384Z,10.57
2023-02-09T13:24:39.017Z,10.70
2023-02-09T13:27:17.882Z,10.88
2023-02-09T13:29:53.327Z,11.13
2023-02-09T13:32:37.893Z,10.98
2023-02-09T13:35:41.679Z,10.63
2023-02-09T13:38:16.653Z,11.73
2023-02-09T13:40:48.812Z,10.38
2023-02-09T13:43:19.001Z,11.07
2023-02-09T13:45:50.707Z,11.93
2023-02-09T13:48:23.971Z,11.15
2023-02-09T13:50:51.921Z,10.60
2023-02-09T13:53:20.241Z,10.45
2023-02-09T13:55:48.457Z,10.98
2023-02-09T13:58:21.428Z,10.07
2023-02-09T14:00:51.328Z,11.07
2023-02-09T14:03:23.989Z,10.52
2023-02-09T14:06:29.866Z,10.82
2023-02-09T14:08:57.885Z,9.48
2023-02-09T14:11:46.509Z,10.85
2023-02-09T14:14:19.444Z,9.57
2023-02-09T14:16:53.389Z,10.50
2023-02-09T14:19:30.778Z,10.50
2023-02-09T14:21:57.507Z,10.15
2023-02-09T14:24:25.853Z,8.63
2023-02-09T14:26:59.305Z,10.55
2023-02-09T14:29:28.391Z,10.10
2023-02-09T14:31:56.374Z,9.20
2023-02-09T14:34:37.122Z,8.93
2023-02-09T14:37:03.540Z,9.35
2023-02-09T14:39:31.409Z,9.23
2023-02-09T14:42:08.504Z,8.85
2023-02-09T14:44:45.106Z,9.77
2023-02-09T14:47:45.342Z,9.43
2023-02-09T14:50:14.534Z,9.32
2023-02-09T14:52:46.717Z,9.73
2023-02-09T14:55:28.141Z,9.70
2023-02-09T14:57:54.663Z,9.93
2023-02-09T15:00:24.034Z,10.00
2023-02-09T15:02:51.756Z,11.10
2023-02-09T15:05:19.793Z,11.07
2023-02-09T15:07:49.497Z,10.75
2023-02-09T15:10:21.279Z,10.60
2023-02-09T15:12:47.831Z,9.85
2023-02-09T15:15:16.626Z,10.45
2023-02-09T15:17:43.230Z,10.57
2023-02-09T15:20:13.577Z,11.05
2023-02-09T15:22:40.132Z,10.40
2023-02-09T15:25:06.891Z,10.95
2023-02-09T15:27:35.406Z,10.85
2023-02-09T15:30:04.519Z,10.15
2023-02-09T15:32:31.492Z,11.52
2023-02-09T15:34:57.999Z,10.95
2023-02-09T15:37:27.261Z,11.40
2023-02-09T15:39:56.558Z,10.32
2023-02-09T15:42:41.510Z,10.88
2023-02-09T15:45:39.787Z,11.20
2023-02-09T15:48:06.681Z,11.05
2023-02-09T15:50:34.837Z,10.65
2023-02-09T15:53:05.540Z,12.55
2023-02-09T15:55:32.447Z,11.70
2023-02-09T15:57:59.138Z,11.65
2023-02-09T16:00:28.553Z,11.43
2023-02-09T16:02:56.391Z,12.13
2023-02-09T16:05:26.436Z,11.30
2023-02-09T16:07:53.858Z,11.45
2023-02-09T16:10:27.615Z,12.48
2023-02-09T16:12:56.593Z,11.43
2023-02-09T16:15:25.338Z,13.35
2023-02-09T16:17:52.181Z,12.93
2023-02-09T16:20:20.078Z,13.63
2023-02-09T16:22:48.615Z,13.68
2023-02-09T16:25:20.824Z,13.52
2023-02-09T16:27:47.601Z,13.55
2023-02-09T16:30:28.474Z,14.23
2023-02-09T16:32:55.509Z,12.90
2023-02-09T16:35:24.014Z,14.07
2023-02-09T16:37:51.797Z,14.32
2023-02-09T16:40:32.676Z,14.80
2023-02-09T16:43:01.175Z,14.05
2023-02-09T16:45:29.538Z,13.15
2023-02-09T16:47:59.130Z,14.40
2023-02-09T16:50:33.185Z,13.13
2023-02-09T16:53:04.413Z,13.27
2023-02-09T16:55:33.577Z,13.43
2023-02-09T16:58:02.391Z,13.50
2023-02-09T17:00:36.980Z,13.75
2023-02-09T17:03:21.050Z,13.27
2023-02-09T17:05:52.538Z,14.18
2023-02-09T17:08:28.241Z,15.07
2023-02-09T17:10:56.211Z,14.18
2023-02-09T17:13:23.009Z,13.57
2023-02-09T17:15:54.713Z,14.35
2023-02-09T17:18:27.466Z,14.20
2023-02-09T17:21:02.552Z,13.43
2023-02-09T17:23:30.491Z,14.00
2023-02-09T17:25:57.547Z,14.75
2023-02-09T17:28:25.607Z,14.40
2023-02-09T17:30:55.983Z,13.55
2023-02-09T17:33:25.103Z,14.40
2023-02-09T17:36:23.786Z,14.40
2023-02-09T17:38:40.997Z,13.43
2023-02-09T17:41:20.112Z,14.25
2023-02-09T17:43:47.247Z,13.57
2023-02-09T17:46:16.276Z,13.70
2023-02-09T17:48:44.993Z,13.75
2023-02-09T17:51:21.183Z,13.82
2023-02-09T17:53:49.055Z,13.88
2023-02-09T17:56:16.809Z,13.55
2023-02-09T17:58:44.551Z,15.52
2023-02-09T18:01:22.887Z,14.75
2023-02-09T18:03:50.749Z,15.77
2023-02-09T18:06:21.340Z,15.32
2023-02-09T18:08:50.238Z,16.00
2023-02-09T18:11:16.816Z,16.27
2023-02-09T18:13:43.518Z,17.15
2023-02-09T18:16:10.204Z,16.88
2023-02-09T18:18:36.783Z,15.98
2023-02-09T18:21:03.362Z,16.77
2023-02-09T18:23:29.957Z,16.13
2023-02-09T18:25:56.458Z,16.95
2023-02-09T18:28:22.962Z,17.50
2023-02-09T18:30:49.640Z,16.50
2023-02-09T18:33:16.511Z,17.17
2023-02-09T18:35:47.171Z,17.13
2023-02-09T18:38:14.874Z,17.25
2023-02-09T18:40:41.551Z,16.90
2023-02-09T18:43:08.833Z,17.75
2023-02-09T18:45:35.675Z,19.25
2023-02-09T18:48:02.269Z,17.60
2023-02-09T18:50:32.457Z,17.88
2023-02-09T18:53:01.878Z,18.17
2023-02-09T18:55:30.690Z,18.58
2023-02-09T18:57:59.180Z,18.75
2023-02-09T19:00:26.346Z,18.83
2023-02-09T19:02:57.373Z,16.95
2023-02-09T19:07:53.107Z,19.70
2023-02-09T19:10:21.143Z,19.00
2023-02-09T19:12:48.322Z,17.92
2023-02-09T19:15:17.078Z,18.92
2023-02-09T19:17:44.230Z,19.08
2023-02-09T19:20:17.608Z,18.05
2023-02-09T19:22:44.759Z,18.00
2023-02-09T19:25:11.290Z,18.88
2023-02-09T19:27:37.841Z,19.60
2023-02-09T19:30:04.678Z,19.98
2023-02-09T19:32:31.260Z,19.60
2023-02-09T19:34:57.823Z,18.98
2023-02-09T19:37:24.714Z,19.58
2023-02-09T19:40:00.427Z,19.77
2023-02-09T19:42:27.009Z,21.17
2023-02-09T19:44:54.179Z,19.15
2023-02-09T19:47:25.917Z,21.60
2023-02-09T19:49:57.737Z,21.15
2023-02-09T19:52:25.833Z,21.48
2023-02-09T19:54:52.579Z,23.02
2023-02-09T19:57:20.072Z,21.55
2023-02-09T19:59:46.579Z,22.60
2023-02-09T20:02:14.200Z,24.15
2023-02-09T20:04:42.622Z,23.90
2023-02-09T20:07:10.053Z,22.58
2023-02-09T20:09:36.656Z,22.92
2023-02-09T20:12:03.689Z,23.30
2023-02-09T20:14:31.708Z,23.02
2023-02-09T20:17:00.067Z,24.50
2023-02-09T20:19:26.815Z,21.90
2023-02-09T20:21:53.389Z,23.67
2023-02-09T20:24:20.121Z,22.90
2023-02-09T20:26:46.745Z,23.08
2023-02-09T20:29:16.252Z,23.00
2023-02-09T20:31:42.914Z,23.55
2023-02-09T20:34:13.431Z,24.33
2023-02-09T20:36:44.163Z,24.13
2023-02-09T20:39:15.816Z,24.63
2023-02-09T20:42:05.338Z,23.42
2023-02-09T20:44:52.230Z,23.50
2023-02-09T20:47:19.197Z,25.58
2023-02-09T20:49:46.046Z,23.63
2023-02-09T20:52:12.884Z,25.27
2023-02-09T20:54:39.575Z,25.38
2023-02-09T20:57:06.282Z,24.38
2023-02-09T20:59:33.992Z,24.70
2023-02-09T21:02:00.903Z,24.10
2023-02-09T21:04:29.879Z,26.17
2023-02-09T21:06:56.977Z,24.95
2023-02-09T21:09:26.331Z,24.52
2023-02-09T21:11:53.687Z,24.65
2023-02-09T21:14:27.821Z,25.83
2023-02-09T21:16:59.431Z,23.67
2023-02-09T21:19:25.966Z,25.02
2023-02-09T21:21:52.927Z,27.17
2023-02-09T21:24:19.628Z,24.15
2023-02-09T21:26:46.306Z,26.90
2023-02-09T21:29:14.117Z,26.85
2023-02-09T21:31:40.852Z,26.98
2023-02-09T21:34:07.617Z,25.90
2023-02-09T21:36:34.235Z,26.70
2023-02-09T21:39:00.926Z,25.80
2023-02-09T21:41:46.591Z,27.35
2023-02-09T21:44:13.889Z,27.52
2023-02-09T21:46:41.026Z,28.00
2023-02-09T21:49:07.634Z,27.88
2023-02-09T21:51:34.880Z,26.63
2023-02-09T21:54:01.358Z,27.65
2023-02-09T21:56:27.919Z,27.60
2023-02-09T21:58:54.438Z,27.30
2023-02-09T22:01:20.999Z,28.05
2023-02-09T22:03:49.657Z,28.60
2023-02-09T22:06:16.307Z,28.15
2023-02-09T22:08:42.833Z,28.85
2023-02-09T22:11:10.250Z,28.13
2023-02-09T22:13:37.845Z,27.90
2023-02-09T22:16:08.581Z,30.33
2023-02-09T22:18:36.040Z,27.40
2023-02-09T22:21:11.465Z,29.20
2023-02-09T22:23:38.102Z,28.25
2023-02-09T22:26:06.124Z,30.48
2023-02-09T22:28:36.204Z,27.35
2023-02-09T22:31:08.026Z,29.40
2023-02-09T22:33:35.392Z,28.85
2023-02-09T22:36:11.485Z,28.85
2023-02-09T22:38:38.043Z,30.20
2023-02-09T22:41:21.127Z,30.00
2023-02-09T22:43:55.209Z,30.85
2023-02-09T22:46:25.473Z,29.20
2023-02-09T22:49:05.490Z,30.60
2023-02-09T22:51:33.224Z,28.60
2023-02-09T22:54:00.533Z,30.77
2023-02-09T22:56:27.925Z,29.92
2023-02-09T22:58:55.324Z,31.13
2023-02-09T23:01:22.329Z,29.88
2023-02-09T23:03:49.427Z,30.80
2023-02-09T23:06:20.946Z,30.00
2023-02-09T23:08:47.575Z,28.92
2023-02-09T23:11:16.591Z,29.65
2023-02-09T23:13:43.510Z,29.08
2023-02-09T23:16:21.061Z,28.75
2023-02-09T23:18:52.444Z,30.67
2023-02-09T23:21:21.859Z,29.75
2023-02-09T23:23:50.917Z,31.40
2023-02-09T23:26:18.482Z,31.10
2023-02-09T23:28:45.642Z,29.95
2023-02-09T23:31:14.630Z,31.05
2023-02-09T23:33:41.627Z,29.80
2023-02-09T23:36:10.689Z,29.20
2023-02-09T23:38:37.711Z,30.63
2023-02-09T23:41:13.490Z,31.08
2023-02-09T23:43:40.137Z,32.67
2023-02-09T23:46:10.520Z,30.23
2023-02-09T23:48:37.318Z,23.40
2023-02-09T23:51:06.208Z,30.73
2023-02-09T23:53:33.542Z,32.45
2023-02-09T23:56:06.192Z,32.13
2023-02-09T23:58:37.263Z,33.13
